Time;durP1;ratioP1;P1;durP2;ratioP2;P2;SDS_P1;SDS_P2;PMS_P1;PMS_P2;Temp;Humidity;BMP_temperature;BMP_pressure;BME280_temperature;BME280_humidity;BME280_pressure;Samples;Min_cycle;Max_cycle;Signal;HPM_P1;HPM_P2
2022/03/31 00:00:43;;;;;;;46.50;33.55;;;8.60;73.90;;;;;;6188740;23;20087;-87
2022/03/31 00:03:13;;;;;;;52.83;35.45;;;8.60;73.90;;;;;;6214798;23;20067;-87
2022/03/31 00:05:41;;;;;;;51.40;34.40;;;8.60;73.90;;;;;;6214711;23;20024;-87
2022/03/31 00:08:15;;;;;;;51.05;35.00;;;8.60;74.00;;;;;;6214556;23;20024;-87
2022/03/31 00:10:43;;;;;;;50.58;36.75;;;8.60;74.00;;;;;;6214956;23;20017;-87
2022/03/31 00:13:13;;;;;;;52.17;37.10;;;8.60;74.00;;;;;;6213986;23;20333;-87
2022/03/31 00:15:40;;;;;;;52.45;37.10;;;8.50;74.00;;;;;;6214231;23;20359;-88
2022/03/31 00:18:08;;;;;;;60.85;37.15;;;8.60;74.10;;;;;;6214191;23;20031;-88
2022/03/31 00:20:36;;;;;;;55.47;36.47;;;8.60;74.10;;;;;;6214558;23;20020;-88
2022/03/31 00:23:05;;;;;;;53.95;37.38;;;8.50;74.20;;;;;;6214290;23;20074;-87
2022/03/31 00:25:32;;;;;;;63.67;37.47;;;8.60;74.20;;;;;;6214156;23;20364;-87
2022/03/31 00:28:01;;;;;;;56.80;39.38;;;8.50;74.20;;;;;;6214193;23;20328;-88
2022/03/31 00:30:27;;;;;;;53.17;36.22;;;8.50;74.30;;;;;;6214038;23;20016;-87
2022/03/31 00:32:55;;;;;;;55.15;38.10;;;8.50;74.30;;;;;;6188242;23;20085;-88
2022/03/31 00:35:22;;;;;;;55.90;37.45;;;8.50;74.40;;;;;;6214042;23;20475;-88
2022/03/31 00:37:49;;;;;;;55.55;37.45;;;8.50;74.40;;;;;;6214496;23;20120;-87
2022/03/31 00:40:18;;;;;;;61.05;38.13;;;8.50;74.40;;;;;;6216087;23;20348;-87
2022/03/31 00:42:51;;;;;;;60.78;38.13;;;8.50;74.50;;;;;;6189939;23;20024;-87
2022/03/31 00:45:25;;;;;;;54.92;38.58;;;8.50;74.50;;;;;;6190104;23;20017;-87
2022/03/31 00:47:54;;;;;;;59.90;39.50;;;8.50;74.60;;;;;;6215929;23;20463;-87
2022/03/31 00:50:25;;;;;;;62.38;39.13;;;8.50;74.60;;;;;;6215831;23;20025;-87
2022/03/31 00:52:52;;;;;;;60.92;40.00;;;8.50;74.60;;;;;;6216338;23;20017;-88
2022/03/31 00:55:40;;;;;;;58.88;39.00;;;8.50;74.70;;;;;;6215507;23;20067;-88
2022/03/31 00:58:07;;;;;;;61.50;39.75;;;8.40;74.70;;;;;;6215981;23;20513;-87
2022/03/31 01:00:35;;;;;;;61.53;39.80;;;8.50;74.80;;;;;;6216289;23;20020;-88
2022/03/31 01:03:03;;;;;;;59.15;38.78;;;8.40;74.80;;;;;;6215812;23;20367;-87
2022/03/31 01:05:30;;;;;;;61.53;39.55;;;8.40;74.90;;;;;;6216298;23;20024;-88
2022/03/31 01:07:57;;;;;;;67.68;40.08;;;8.40;74.90;;;;;;6216026;23;20036;-88
2022/03/31 01:10:24;;;;;;;61.17;37.83;;;8.40;75.00;;;;;;6215265;23;20070;-87
2022/03/31 01:12:51;;;;;;;57.65;38.50;;;8.40;75.00;;;;;;6216259;23;20050;-87
2022/03/31 01:15:20;;;;;;;63.15;38.95;;;8.40;75.00;;;;;;6215854;23;20474;-87
2022/03/31 01:17:49;;;;;;;64.53;39.92;;;8.40;75.00;;;;;;6216438;23;20020;-87
2022/03/31 01:20:21;;;;;;;63.95;39.75;;;8.40;75.10;;;;;;6215968;23;20035;-87
2022/03/31 01:22:50;;;;;;;63.97;40.28;;;8.50;75.10;;;;;;6216018;23;20028;-87
2022/03/31 01:25:18;;;;;;;63.92;41.00;;;8.40;75.10;;;;;;6215784;23;20017;-87
2022/03/31 01:27:46;;;;;;;59.38;38.72;;;8.40;75.20;;;;;;6216084;23;20402;-87
2022/03/31 01:30:22;;;;;;;63.35;42.25;;;8.40;75.20;;;;;;6215892;23;20028;-88
2022/03/31 01:32:50;;;;;;;67.15;40.58;;;8.40;75.30;;;;;;6215539;23;20470;-87
2022/03/31 01:35:17;;;;;;;63.70;39.55;;;8.40;75.30;;;;;;6215442;23;20024;-86
2022/03/31 01:37:45;;;;;;;69.82;39.78;;;8.40;75.30;;;;;;6216154;23;20055;-87
2022/03/31 01:40:12;;;;;;;62.72;41.42;;;8.40;75.40;;;;;;6215520;23;20016;-88
2022/03/31 01:42:42;;;;;;;72.13;42.63;;;8.40;75.40;;;;;;6215370;23;20363;-87
2022/03/31 01:45:14;;;;;;;70.97;42.70;;;8.40;75.40;;;;;;6188967;23;20021;-87
2022/03/31 01:47:42;;;;;;;68.80;40.60;;;8.40;75.40;;;;;;6215717;23;20017;-87
2022/03/31 01:50:10;;;;;;;61.75;41.65;;;8.40;75.40;;;;;;6214855;23;20023;-87
2022/03/31 01:52:40;;;;;;;65.53;42.38;;;8.40;75.50;;;;;;6215804;23;20028;-87
2022/03/31 01:55:08;;;;;;;68.40;42.03;;;8.40;75.50;;;;;;6215455;23;20024;-88
2022/03/31 01:57:35;;;;;;;73.32;44.35;;;8.40;75.50;;;;;;6215722;23;20025;-88
2022/03/31 02:00:05;;;;;;;67.50;42.80;;;8.30;75.60;;;;;;6215699;23;20024;-88
2022/03/31 02:02:32;;;;;;;71.75;43.70;;;8.30;75.60;;;;;;6215726;23;20052;-88
2022/03/31 02:04:59;;;;;;;68.63;43.25;;;8.30;75.60;;;;;;6215223;23;20505;-88
2022/03/31 02:07:26;;;;;;;61.38;41.72;;;8.30;75.60;;;;;;6188649;23;20024;-88
2022/03/31 02:09:52;;;;;;;71.43;43.92;;;8.30;75.70;;;;;;6215253;23;20538;-87
2022/03/31 02:12:19;;;;;;;77.10;44.15;;;8.30;75.70;;;;;;6215514;23;20017;-88
2022/03/31 02:14:46;;;;;;;69.10;42.42;;;8.30;75.70;;;;;;6215643;23;20066;-87
2022/03/31 02:17:13;;;;;;;71.82;42.30;;;8.20;75.80;;;;;;6215192;23;20036;-87
2022/03/31 02:19:41;;;;;;;67.97;41.17;;;8.20;75.80;;;;;;6189236;23;20024;-87
2022/03/31 02:22:08;;;;;;;61.42;40.10;;;8.20;75.90;;;;;;6215198;23;20071;-88
2022/03/31 02:24:35;;;;;;;66.25;41.25;;;8.20;75.90;;;;;;6215430;23;20025;-88
2022/03/31 02:27:04;;;;;;;68.40;41.70;;;8.20;76.00;;;;;;6215060;23;20066;-88
2022/03/31 02:29:31;;;;;;;67.07;41.03;;;8.20;76.00;;;;;;6188953;23;20024;-89
2022/03/31 02:31:58;;;;;;;65.00;40.35;;;8.10;76.10;;;;;;6215348;23;20016;-87
2022/03/31 02:34:25;;;;;;;67.50;39.92;;;8.20;76.10;;;;;;6214742;23;20490;-88
2022/03/31 02:36:52;;;;;;;58.75;37.20;;;8.20;76.20;;;;;;6214603;23;20519;-87
2022/03/31 02:39:19;;;;;;;53.97;36.08;;;8.20;76.20;;;;;;6215411;23;20071;-88
2022/03/31 02:41:46;;;;;;;56.25;36.00;;;8.10;76.30;;;;;;6215223;23;20028;-88
2022/03/31 02:44:14;;;;;;;56.10;37.35;;;8.10;76.30;;;;;;6189001;23;20020;-88
2022/03/31 02:46:41;;;;;;;55.20;36.13;;;8.10;76.40;;;;;;6214915;23;20534;-88
2022/03/31 02:49:08;;;;;;;53.20;35.47;;;8.10;76.40;;;;;;6214865;23;20020;-88
2022/03/31 02:51:35;;;;;;;54.53;36.25;;;8.10;76.50;;;;;;6214819;23;20079;-88
2022/03/31 02:56:48;;;;;;;52.58;35.28;;;8.10;76.50;;;;;;6214807;23;20482;-87
2022/03/31 02:59:15;;;;;;;51.13;33.10;;;8.10;76.50;;;;;;6215106;23;20024;-87
2022/03/31 03:01:43;;;;;;;51.20;32.85;;;8.10;76.60;;;;;;6214744;23;20020;-87
2022/03/31 03:04:10;;;;;;;46.60;30.77;;;8.10;76.60;;;;;;6215069;23;20100;-87
2022/03/31 03:06:37;;;;;;;48.78;33.00;;;8.10;76.60;;;;;;6214250;23;20407;-87
2022/03/31 03:09:06;;;;;;;48.13;30.98;;;8.10;76.70;;;;;;6214972;23;20147;-87
2022/03/31 03:11:33;;;;;;;43.08;29.77;;;8.10;76.70;;;;;;6214644;23;20021;-87
2022/03/31 03:14:01;;;;;;;41.42;29.27;;;8.10;76.70;;;;;;6214641;23;20070;-88
2022/03/31 03:16:28;;;;;;;40.63;27.27;;;8.10;76.70;;;;;;6214610;23;20544;-88
2022/03/31 03:18:54;;;;;;;38.50;26.42;;;8.10;76.70;;;;;;6214620;23;20483;-88
2022/03/31 03:21:21;;;;;;;36.75;25.65;;;8.00;76.70;;;;;;6214634;23;20024;-87
2022/03/31 03:23:48;;;;;;;36.80;24.27;;;8.00;76.70;;;;;;6214917;23;20538;-88
2022/03/31 03:26:16;;;;;;;36.88;24.55;;;8.00;76.70;;;;;;6214753;23;20471;-88
2022/03/31 03:28:43;;;;;;;30.67;23.08;;;8.00;76.70;;;;;;6214474;23;20031;-88
2022/03/31 03:31:11;;;;;;;29.58;21.83;;;8.00;76.70;;;;;;6214586;23;20395;-88
2022/03/31 03:33:40;;;;;;;34.17;22.58;;;8.00;76.70;;;;;;6214961;23;20028;-87
2022/03/31 03:36:12;;;;;;;34.17;21.65;;;8.00;76.70;;;;;;6213928;23;20020;-87
2022/03/31 03:38:40;;;;;;;31.27;21.92;;;8.00;76.70;;;;;;6214919;23;20043;-87
2022/03/31 03:41:08;;;;;;;25.95;19.88;;;8.00;76.70;;;;;;6214810;23;20027;-88
2022/03/31 03:43:35;;;;;;;26.95;20.35;;;7.90;76.70;;;;;;6214772;23;20020;-87
2022/03/31 03:46:02;;;;;;;31.40;19.45;;;7.90;76.70;;;;;;6214505;23;20027;-87
2022/03/31 03:48:30;;;;;;;25.25;18.48;;;7.90;76.70;;;;;;6214583;23;20021;-88
2022/03/31 03:50:57;;;;;;;31.80;18.55;;;7.90;76.70;;;;;;6213908;23;20074;-87
2022/03/31 03:53:24;;;;;;;27.10;19.10;;;7.90;76.60;;;;;;6214696;23;20329;-87
2022/03/31 03:55:51;;;;;;;24.10;18.27;;;7.90;76.60;;;;;;6214776;23;20024;-88
2022/03/31 03:58:19;;;;;;;23.35;18.30;;;7.80;76.60;;;;;;6214813;23;20025;-88
2022/03/31 04:00:46;;;;;;;26.08;18.95;;;7.80;76.60;;;;;;6214800;23;20333;-87
2022/03/31 04:03:13;;;;;;;23.92;18.17;;;7.80;76.60;;;;;;6214458;23;20031;-87
2022/03/31 04:05:40;;;;;;;23.50;16.83;;;7.70;76.60;;;;;;6214327;23;20027;-88
2022/03/31 04:08:07;;;;;;;22.25;17.15;;;7.70;76.50;;;;;;6214502;23;20043;-87
2022/03/31 04:10:34;;;;;;;20.65;16.67;;;7.70;76.50;;;;;;6214735;23;20028;-88
2022/03/31 04:13:02;;;;;;;21.38;17.27;;;7.60;76.40;;;;;;6214774;23;20021;-89
2022/03/31 04:15:29;;;;;;;20.10;16.30;;;7.60;76.40;;;;;;6216679;23;20028;-86
2022/03/31 04:17:56;;;;;;;16.73;14.35;;;7.60;76.30;;;;;;6215936;23;20025;-88
2022/03/31 04:20:23;;;;;;;14.15;11.38;;;7.50;76.30;;;;;;6216584;23;20051;-88
2022/03/31 04:22:49;;;;;;;13.50;11.98;;;7.50;76.10;;;;;;6216637;23;20059;-88
2022/03/31 04:25:16;;;;;;;13.05;11.18;;;7.50;76.00;;;;;;6216767;23;20419;-87
2022/03/31 04:27:43;;;;;;;12.35;10.27;;;7.40;75.80;;;;;;6190146;23;20025;-87
2022/03/31 04:30:12;;;;;;;12.98;9.50;;;7.40;75.80;;;;;;6216089;23;20477;-89
2022/03/31 04:32:39;;;;;;;10.07;8.68;;;7.40;75.60;;;;;;6215696;23;20046;-87
2022/03/31 04:35:07;;;;;;;11.18;8.13;;;7.30;75.50;;;;;;6216182;23;20031;-88
2022/03/31 04:37:34;;;;;;;9.52;8.13;;;7.30;75.40;;;;;;6216113;23;20020;-87
2022/03/31 04:40:04;;;;;;;8.50;7.35;;;7.20;75.30;;;;;;6216551;23;20021;-87
2022/03/31 04:42:31;;;;;;;9.48;7.03;;;7.20;75.20;;;;;;6216420;23;20017;-87
2022/03/31 04:44:59;;;;;;;8.82;7.53;;;7.10;75.10;;;;;;6216381;23;20017;-88
2022/03/31 04:47:26;;;;;;;8.70;6.78;;;7.00;74.90;;;;;;6215732;23;20108;-88
2022/03/31 04:49:53;;;;;;;9.10;6.13;;;7.00;74.90;;;;;;6215872;23;20075;-88
2022/03/31 04:52:20;;;;;;;7.00;5.90;;;6.90;74.80;;;;;;6215978;23;20067;-88
2022/03/31 04:54:47;;;;;;;6.32;5.22;;;6.90;74.70;;;;;;6190153;23;20082;-87
2022/03/31 04:57:16;;;;;;;7.03;5.10;;;6.90;74.60;;;;;;6216067;23;20474;-87
2022/03/31 04:59:44;;;;;;;7.18;5.00;;;6.80;74.50;;;;;;6216358;23;20079;-88
2022/03/31 05:02:12;;;;;;;7.28;4.65;;;6.80;74.50;;;;;;6215787;23;20390;-86
2022/03/31 05:04:40;;;;;;;5.82;4.43;;;6.70;74.40;;;;;;6215651;23;20023;-87
2022/03/31 05:07:08;;;;;;;6.03;4.93;;;6.70;74.40;;;;;;6216005;23;20020;-87
2022/03/31 05:09:35;;;;;;;6.00;4.63;;;6.60;74.30;;;;;;6215685;23;20482;-88
2022/03/31 05:12:03;;;;;;;6.55;4.88;;;6.60;74.30;;;;;;6215897;23;20020;-87
2022/03/31 05:14:30;;;;;;;5.10;4.07;;;6.60;74.20;;;;;;6216144;23;20025;-87
2022/03/31 05:16:58;;;;;;;6.03;4.55;;;6.60;74.20;;;;;;6215938;23;20059;-88
2022/03/31 05:19:25;;;;;;;5.82;3.78;;;6.50;74.20;;;;;;6216101;23;20020;-87
2022/03/31 05:21:52;;;;;;;5.32;4.03;;;6.50;74.10;;;;;;6216384;23;20038;-87
2022/03/31 05:24:19;;;;;;;5.32;3.95;;;6.40;74.10;;;;;;6216077;23;20025;-87
2022/03/31 05:26:46;;;;;;;5.55;3.92;;;6.40;74.00;;;;;;6215281;23;20021;-87
2022/03/31 05:29:13;;;;;;;5.68;3.83;;;6.40;73.90;;;;;;6215591;23;20475;-87
2022/03/31 05:31:40;;;;;;;4.40;3.38;;;6.40;73.90;;;;;;6215162;23;20024;-87
2022/03/31 05:34:07;;;;;;;4.93;3.78;;;6.30;73.80;;;;;;6215855;23;20471;-87
2022/03/31 05:36:34;;;;;;;4.65;3.47;;;6.30;73.80;;;;;;6215543;23;20017;-88
2022/03/31 05:39:02;;;;;;;4.43;3.30;;;6.30;73.80;;;;;;6189248;23;20074;-88
2022/03/31 05:41:30;;;;;;;4.60;3.28;;;6.20;73.70;;;;;;6215928;23;20020;-87
2022/03/31 05:43:57;;;;;;;6.15;3.85;;;6.20;73.70;;;;;;6215854;23;20028;-87
2022/03/31 05:46:25;;;;;;;4.88;3.42;;;6.20;73.60;;;;;;6215470;23;20083;-88
2022/03/31 05:48:53;;;;;;;4.55;3.30;;;6.20;73.60;;;;;;6215846;23;20021;-87
2022/03/31 05:51:20;;;;;;;4.65;3.40;;;6.20;73.50;;;;;;6215486;23;20028;-88
2022/03/31 05:53:46;;;;;;;4.53;3.22;;;6.20;73.50;;;;;;6215797;23;20016;-87
2022/03/31 05:56:13;;;;;;;4.93;3.60;;;6.10;73.50;;;;;;6215736;23;20024;-88
2022/03/31 05:58:40;;;;;;;6.05;3.65;;;6.10;73.50;;;;;;6215732;23;20028;-87
2022/03/31 06:01:07;;;;;;;4.40;3.50;;;6.10;73.50;;;;;;6215024;23;20032;-87
2022/03/31 06:03:34;;;;;;;5.22;4.15;;;6.10;73.50;;;;;;6215667;23;20020;-88
2022/03/31 06:06:01;;;;;;;4.85;3.97;;;6.00;73.50;;;;;;6215201;23;20020;-88
2022/03/31 06:08:29;;;;;;;5.43;4.15;;;6.00;73.50;;;;;;6213970;23;20475;-87
2022/03/31 06:10:56;;;;;;;6.78;4.15;;;6.00;73.50;;;;;;6215326;23;20016;-87
2022/03/31 06:13:23;;;;;;;5.07;4.00;;;6.00;73.50;;;;;;6215345;23;20051;-88
2022/03/31 06:15:49;;;;;;;5.47;4.20;;;6.00;73.40;;;;;;6214574;23;20083;-87
2022/03/31 06:18:17;;;;;;;6.28;3.90;;;6.00;73.50;;;;;;6214740;23;20036;-87
2022/03/31 06:20:44;;;;;;;5.53;3.97;;;6.00;73.40;;;;;;6214846;23;20027;-87
2022/03/31 06:23:11;;;;;;;5.47;4.28;;;6.00;73.40;;;;;;6215315;23;20024;-88
2022/03/31 06:25:38;;;;;;;6.10;4.20;;;6.00;73.40;;;;;;6215162;23;20028;-88
2022/03/31 06:28:05;;;;;;;5.30;4.28;;;6.00;73.40;;;;;;6214830;23;20028;-87
2022/03/31 06:30:33;;;;;;;6.40;4.63;;;6.00;73.40;;;;;;6214163;23;20025;-87
2022/03/31 06:33:00;;;;;;;5.47;4.80;;;6.00;73.40;;;;;;6215027;23;20021;-88
2022/03/31 06:35:27;;;;;;;6.28;4.82;;;5.90;73.40;;;;;;6214619;23;20024;-87
2022/03/31 06:37:54;;;;;;;8.35;5.13;;;5.90;73.40;;;;;;6214992;23;20452;-89
2022/03/31 06:40:21;;;;;;;6.35;4.97;;;5.90;73.40;;;;;;6215094;23;20017;-87
2022/03/31 06:42:50;;;;;;;6.28;5.57;;;5.90;73.40;;;;;;6215198;23;20020;-87
2022/03/31 06:45:18;;;;;;;7.05;5.63;;;5.90;73.40;;;;;;6214524;23;20024;-87
2022/03/31 06:47:55;;;;;;;6.60;5.15;;;5.90;73.40;;;;;;6214877;23;20044;-87
2022/03/31 06:50:29;;;;;;;6.70;5.97;;;5.90;73.40;;;;;;6214502;23;20020;-87
2022/03/31 06:52:58;;;;;;;7.22;5.70;;;5.90;73.40;;;;;;6188613;23;20236;-87
2022/03/31 06:55:26;;;;;;;6.50;5.28;;;5.90;73.40;;;;;;6214719;23;20079;-88
2022/03/31 06:57:54;;;;;;;8.13;5.72;;;5.90;73.40;;;;;;6214520;23;20023;-87
2022/03/31 07:00:21;;;;;;;6.68;5.82;;;5.90;73.40;;;;;;6214343;23;20091;-88
2022/03/31 07:02:48;;;;;;;7.13;5.75;;;5.90;73.40;;;;;;6214560;23;20467;-89
2022/03/31 07:05:15;;;;;;;6.50;5.32;;;5.90;73.40;;;;;;6214537;23;20470;-88
2022/03/31 07:07:42;;;;;;;8.32;5.68;;;5.90;73.40;;;;;;6188317;23;20096;-87
2022/03/31 07:10:10;;;;;;;7.00;6.10;;;5.90;73.40;;;;;;6214683;23;20025;-86
2022/03/31 07:12:39;;;;;;;9.32;6.30;;;5.90;73.40;;;;;;6214445;23;20021;-88
2022/03/31 07:15:08;;;;;;;7.93;5.85;;;5.90;73.40;;;;;;6214709;23;20021;-89
2022/03/31 07:17:35;;;;;;;10.55;7.00;;;5.90;73.40;;;;;;6214614;23;20017;-88
2022/03/31 07:20:03;;;;;;;8.43;6.80;;;5.90;73.40;;;;;;6214583;23;20027;-88
2022/03/31 07:22:32;;;;;;;8.70;6.80;;;5.90;73.40;;;;;;6214683;23;20031;-89
2022/03/31 07:25:00;;;;;;;9.18;6.40;;;5.90;73.30;;;;;;6214738;23;20027;-86
2022/03/31 07:27:27;;;;;;;7.45;6.55;;;5.90;73.30;;;;;;6214242;23;20017;-88
2022/03/31 07:29:54;;;;;;;10.90;7.25;;;5.90;73.30;;;;;;6214269;23;20486;-87
2022/03/31 07:32:21;;;;;;;9.25;6.80;;;5.90;73.30;;;;;;6214438;23;20025;-88
2022/03/31 07:34:48;;;;;;;8.25;6.82;;;5.90;73.30;;;;;;6188074;23;20099;-86
2022/03/31 07:37:15;;;;;;;8.20;6.68;;;5.90;73.20;;;;;;6214810;23;20016;-88
2022/03/31 07:39:45;;;;;;;8.35;6.63;;;5.90;73.20;;;;;;6214177;23;20478;-88
2022/03/31 07:42:14;;;;;;;8.45;6.85;;;5.90;73.10;;;;;;6187838;23;20039;-86
2022/03/31 07:44:41;;;;;;;8.77;7.00;;;5.90;73.10;;;;;;6214593;23;20028;-87
2022/03/31 07:47:08;;;;;;;7.82;6.65;;;5.90;73.10;;;;;;6214504;23;20087;-86
2022/03/31 07:49:35;;;;;;;7.82;6.65;;;5.90;73.10;;;;;;6187550;23;20021;-86
2022/03/31 07:52:03;;;;;;;7.78;6.40;;;5.90;73.10;;;;;;6214541;23;20020;-86
2022/03/31 07:54:30;;;;;;;7.38;6.45;;;5.90;73.10;;;;;;6214630;23;20028;-86
2022/03/31 07:56:57;;;;;;;8.15;6.50;;;5.90;73.10;;;;;;6213978;23;20027;-86
2022/03/31 07:59:29;;;;;;;7.95;6.43;;;5.90;73.00;;;;;;6214482;23;20025;-87
2022/03/31 08:01:56;;;;;;;7.20;6.00;;;6.00;73.00;;;;;;6214378;23;20052;-86
2022/03/31 08:04:23;;;;;;;8.57;6.65;;;5.90;73.00;;;;;;6214565;23;20091;-86
2022/03/31 08:06:51;;;;;;;7.60;6.25;;;6.00;72.90;;;;;;6214124;23;20475;-85
2022/03/31 08:09:20;;;;;;;6.85;5.50;;;6.00;72.90;;;;;;6187578;23;20021;-87
2022/03/31 08:11:49;;;;;;;8.45;5.70;;;6.00;72.80;;;;;;6214089;23;20031;-86
2022/03/31 08:14:20;;;;;;;6.30;5.05;;;6.00;72.80;;;;;;6214271;23;20028;-86
2022/03/31 08:16:48;;;;;;;7.25;5.50;;;6.00;72.80;;;;;;6214096;23;20083;-86
2022/03/31 08:19:16;;;;;;;6.80;5.10;;;6.10;72.70;;;;;;6214538;23;20031;-86
2022/03/31 08:21:45;;;;;;;7.00;5.22;;;6.10;72.70;;;;;;6214359;23;20020;-87
2022/03/31 08:24:13;;;;;;;5.93;4.28;;;6.10;72.60;;;;;;6213915;23;20086;-87
2022/03/31 08:26:42;;;;;;;5.72;4.28;;;6.20;72.60;;;;;;6214032;23;20075;-86
2022/03/31 08:29:10;;;;;;;5.38;4.03;;;6.20;72.50;;;;;;6187686;23;20094;-87
2022/03/31 08:31:37;;;;;;;6.85;4.53;;;6.20;72.50;;;;;;6214190;23;20025;-86
2022/03/31 08:34:05;;;;;;;8.68;4.65;;;6.20;72.40;;;;;;6213827;23;20474;-86
2022/03/31 08:36:32;;;;;;;6.40;4.25;;;6.30;72.40;;;;;;6214199;23;20086;-86
2022/03/31 08:39:00;;;;;;;5.88;3.75;;;6.30;72.30;;;;;;6213447;23;20545;-86
2022/03/31 08:41:28;;;;;;;8.02;3.80;;;6.30;72.20;;;;;;6214436;23;20021;-86
2022/03/31 08:43:56;;;;;;;5.45;3.72;;;6.30;72.20;;;;;;6214292;23;20368;-86
2022/03/31 08:46:29;;;;;;;8.88;3.83;;;6.40;72.10;;;;;;6213926;23;20402;-86
2022/03/31 08:48:57;;;;;;;5.47;3.60;;;6.40;72.10;;;;;;6214407;23;20021;-86
2022/03/31 08:51:24;;;;;;;6.95;4.30;;;6.40;72.00;;;;;;6213850;23;20504;-87
2022/03/31 08:53:51;;;;;;;5.05;3.33;;;6.40;71.90;;;;;;6213536;23;20021;-87
2022/03/31 08:56:18;;;;;;;5.22;3.60;;;6.40;71.90;;;;;;6214201;23;20028;-86
2022/03/31 08:58:46;;;;;;;10.95;3.85;;;6.50;71.90;;;;;;6213885;23;20029;-86
2022/03/31 09:01:15;;;;;;;5.70;4.03;;;6.50;71.90;;;;;;6215383;23;20032;-87
2022/03/31 09:03:43;;;;;;;7.20;4.18;;;6.50;71.90;;;;;;6216060;23;20056;-86
2022/03/31 09:06:29;;;;;;;7.50;5.00;;;6.50;71.90;;;;;;6215448;23;20082;-87
2022/03/31 09:09:02;;;;;;;7.10;4.00;;;6.50;71.90;;;;;;6215155;23;20478;-86
2022/03/31 09:11:31;;;;;;;8.52;4.68;;;6.60;71.80;;;;;;6215832;23;20078;-86
2022/03/31 09:14:05;;;;;;;6.57;4.10;;;6.60;71.80;;;;;;6215922;23;20021;-85
2022/03/31 09:16:35;;;;;;;7.25;4.68;;;6.60;71.80;;;;;;6215527;23;20025;-85
2022/03/31 09:19:05;;;;;;;5.70;4.07;;;6.60;71.80;;;;;;6215828;23;20100;-87
2022/03/31 09:21:32;;;;;;;6.32;4.38;;;6.60;71.80;;;;;;6215800;23;20067;-86
2022/03/31 09:24:00;;;;;;;6.50;4.00;;;6.70;71.80;;;;;;6214914;23;20486;-86
2022/03/31 09:26:31;;;;;;;5.95;4.57;;;6.70;71.80;;;;;;6215482;23;20023;-87
2022/03/31 09:29:13;;;;;;;6.05;4.22;;;6.70;71.80;;;;;;6215333;23;20487;-87
2022/03/31 09:31:40;;;;;;;7.03;4.30;;;6.70;71.80;;;;;;6215307;23;20024;-86
2022/03/31 09:34:08;;;;;;;5.82;3.90;;;6.70;71.70;;;;;;6215217;23;20047;-87
2022/03/31 09:36:39;;;;;;;6.63;4.18;;;6.70;71.70;;;;;;6215762;23;20095;-86
2022/03/31 09:39:13;;;;;;;6.32;3.47;;;6.70;71.70;;;;;;6215153;23;20021;-86
2022/03/31 09:41:42;;;;;;;6.68;3.55;;;6.70;71.70;;;;;;6215573;23;20067;-86
2022/03/31 09:44:18;;;;;;;6.25;3.60;;;6.70;71.70;;;;;;6215551;23;20406;-86
2022/03/31 09:46:46;;;;;;;5.32;3.38;;;6.80;71.70;;;;;;6215851;23;20032;-87
2022/03/31 09:49:19;;;;;;;5.10;3.50;;;6.80;71.70;;;;;;6215292;23;20367;-86
2022/03/31 09:51:51;;;;;;;5.15;3.20;;;6.80;71.60;;;;;;6215288;23;20027;-86
2022/03/31 09:54:20;;;;;;;7.05;3.63;;;6.80;71.60;;;;;;6215348;23;20667;-87
2022/03/31 09:56:47;;;;;;;5.40;3.38;;;6.80;71.60;;;;;;6215609;23;20021;-87
2022/03/31 09:59:15;;;;;;;5.20;3.25;;;6.80;71.60;;;;;;6215502;23;20017;-87
2022/03/31 10:01:51;;;;;;;5.03;2.85;;;6.80;71.60;;;;;;6215051;23;20351;-86
2022/03/31 10:04:20;;;;;;;7.68;3.08;;;6.90;71.70;;;;;;6215496;23;20039;-87
2022/03/31 10:06:54;;;;;;;6.03;3.17;;;6.90;71.60;;;;;;6214708;23;20388;-87
2022/03/31 10:09:22;;;;;;;7.70;3.03;;;6.90;71.60;;;;;;6215714;23;20021;-86
2022/03/31 10:12:00;;;;;;;5.65;3.08;;;6.90;71.60;;;;;;6215514;23;20048;-86
2022/03/31 10:14:52;;;;;;;6.70;3.13;;;6.90;71.60;;;;;;6214916;23;20475;-87
2022/03/31 10:17:26;;;;;;;4.53;2.92;;;7.00;71.60;;;;;;6215251;23;20430;-86
2022/03/31 10:19:54;;;;;;;4.97;3.00;;;7.00;71.50;;;;;;6215189;23;20024;-87
2022/03/31 10:25:13;;;;;;;6.60;2.92;;;7.10;71.40;;;;;;6215339;23;20078;-87
2022/03/31 10:27:49;;;;;;;4.40;3.08;;;7.20;71.30;;;;;;6215091;23;20044;-86
2022/03/31 10:30:17;;;;;;;;;;;7.20;71.20;;;;;;6215542;23;20032;-87
2022/03/31 10:32:54;;;;;;;4.57;2.58;;;7.30;71.20;;;;;;6215232;23;19962;-87
2022/03/31 10:35:26;;;;;;;5.30;2.75;;;7.30;71.10;;;;;;6214472;23;20027;-86
2022/03/31 10:37:54;;;;;;;6.60;2.83;;;7.40;70.90;;;;;;6214678;23;20074;-87
2022/03/31 10:40:38;;;;;;;8.80;2.75;;;7.40;70.80;;;;;;6214774;23;20059;-87
2022/03/31 10:43:06;;;;;;;5.50;2.58;;;7.50;70.60;;;;;;6214933;23;20470;-88
2022/03/31 10:45:39;;;;;;;5.00;2.53;;;7.60;70.50;;;;;;6215180;23;20020;-89
2022/03/31 10:48:15;;;;;;;4.97;2.50;;;7.70;70.30;;;;;;6215096;23;20021;-90
2022/03/31 10:50:42;;;;;;;5.32;2.50;;;7.80;70.20;;;;;;6214460;23;20336;-89
2022/03/31 10:53:10;;;;;;;5.60;2.20;;;7.90;70.00;;;;;;6214962;23;20087;-90
2022/03/31 10:55:42;;;;;;;5.13;2.38;;;7.90;69.70;;;;;;6215131;23;20052;-89
2022/03/31 10:58:25;;;;;;;4.35;2.10;;;8.00;69.50;;;;;;6214997;23;20028;-88
2022/03/31 11:00:54;;;;;;;4.50;2.17;;;8.10;69.20;;;;;;6214663;23;20363;-90
2022/03/31 11:03:22;;;;;;;4.70;2.00;;;8.20;69.00;;;;;;6214533;23;20541;-89
2022/03/31 11:05:50;;;;;;;6.38;2.03;;;8.20;68.70;;;;;;6214581;23;20020;-90
2022/03/31 11:08:17;;;;;;;3.67;1.80;;;8.30;68.40;;;;;;6214731;23;20025;-91
2022/03/31 11:10:49;;;;;;;7.00;1.98;;;8.40;68.20;;;;;;6188960;23;20025;-90
2022/03/31 11:13:18;;;;;;;3.83;1.70;;;8.40;68.00;;;;;;6215225;23;20074;-90
2022/03/31 11:15:55;;;;;;;4.20;1.73;;;8.40;67.80;;;;;;6188624;23;20082;-90
2022/03/31 11:18:23;;;;;;;2.97;1.40;;;8.50;67.60;;;;;;6214363;23;20091;-88
2022/03/31 11:21:00;;;;;;;7.22;1.92;;;8.60;67.50;;;;;;6188764;23;20531;-88
2022/03/31 11:23:29;;;;;;;5.93;1.70;;;8.60;67.20;;;;;;6187947;23;20544;-90
2022/03/31 11:25:57;;;;;;;4.85;1.60;;;8.70;67.10;;;;;;6214799;23;20406;-91
2022/03/31 11:28:29;;;;;;;7.00;1.52;;;8.80;66.80;;;;;;6214990;23;20021;-90
2022/03/31 11:30:59;;;;;;;4.90;1.50;;;8.80;66.60;;;;;;6214924;23;20024;-91
2022/03/31 11:33:35;;;;;;;5.10;1.63;;;8.90;66.50;;;;;;6215002;23;20017;-90
2022/03/31 11:36:02;;;;;;;6.40;1.75;;;8.90;66.40;;;;;;6214640;23;20340;-90
2022/03/31 11:38:29;;;;;;;5.20;1.45;;;8.90;66.40;;;;;;6214679;23;20033;-91
2022/03/31 11:40:56;;;;;;;6.85;1.42;;;8.90;66.40;;;;;;6215122;23;20071;-90
2022/03/31 11:43:24;;;;;;;5.35;1.50;;;9.00;66.30;;;;;;6215063;23;20101;-88
2022/03/31 11:45:55;;;;;;;6.15;1.40;;;9.10;66.30;;;;;;6215156;23;20020;-88
2022/03/31 11:48:24;;;;;;;6.57;1.40;;;9.10;66.30;;;;;;6188316;23;20083;-88
2022/03/31 11:50:56;;;;;;;4.03;1.10;;;9.20;66.10;;;;;;6214147;23;20070;-88
2022/03/31 11:53:47;;;;;;;4.97;1.25;;;9.20;65.80;;;;;;6214814;23;20052;-89
2022/03/31 11:56:22;;;;;;;7.07;1.17;;;9.20;65.50;;;;;;6214765;23;20103;-90
2022/03/31 11:58:55;;;;;;;7.00;1.20;;;9.20;65.40;;;;;;6214678;23;20099;-88
2022/03/31 12:01:40;;;;;;;6.00;1.38;;;9.20;65.20;;;;;;6214834;23;20056;-89
2022/03/31 12:04:15;;;;;;;4.18;1.30;;;9.20;65.10;;;;;;6214569;23;20090;-89
2022/03/31 12:06:43;;;;;;;5.70;1.20;;;9.20;65.10;;;;;;6214772;23;20100;-89
2022/03/31 12:09:11;;;;;;;2.92;1.10;;;9.20;65.10;;;;;;6214563;23;20079;-89
2022/03/31 12:11:38;;;;;;;3.88;1.40;;;9.20;65.10;;;;;;6214584;23;20026;-88
2022/03/31 12:14:07;;;;;;;5.93;1.48;;;9.20;65.10;;;;;;6214843;23;20390;-89
2022/03/31 12:16:49;;;;;;;2.72;0.80;;;9.20;65.10;;;;;;6214237;23;20021;-89
2022/03/31 12:19:17;;;;;;;4.20;1.45;;;9.30;65.10;;;;;;6214803;23;20021;-89
2022/03/31 12:21:49;;;;;;;2.58;0.80;;;9.40;65.00;;;;;;6214741;23;20020;-89
2022/03/31 12:24:17;;;;;;;4.65;1.20;;;9.40;64.90;;;;;;6214367;23;20467;-89
2022/03/31 12:27:01;;;;;;;3.55;1.15;;;9.40;64.70;;;;;;6214681;23;20096;-89
2022/03/31 12:29:31;;;;;;;;;;;9.50;64.40;;;;;;6215305;23;20024;-90
2022/03/31 12:32:01;;;;;;;2.53;0.90;;;9.50;64.20;;;;;;6214214;23;19915;-89
2022/03/31 12:34:29;;;;;;;2.65;0.90;;;9.60;64.00;;;;;;6214786;23;20027;-89
2022/03/31 12:36:57;;;;;;;7.47;1.13;;;9.60;63.70;;;;;;6216541;23;20078;-89
2022/03/31 12:39:24;;;;;;;4.60;0.90;;;9.70;63.30;;;;;;6190201;23;20067;-89
2022/03/31 12:41:55;;;;;;;3.58;1.02;;;9.70;62.90;;;;;;6216459;23;20078;-89
2022/03/31 12:44:25;;;;;;;2.72;1.20;;;9.80;62.40;;;;;;6216029;23;20102;-89
2022/03/31 12:46:55;;;;;;;5.07;1.30;;;9.80;62.10;;;;;;6215907;23;20024;-89
2022/03/31 12:49:47;;;;;;;4.72;1.25;;;9.90;61.70;;;;;;6216166;23;20020;-88
2022/03/31 12:52:17;;;;;;;2.40;0.55;;;9.90;61.40;;;;;;6216488;23;20067;-89
2022/03/31 12:54:47;;;;;;;2.72;0.70;;;9.90;61.00;;;;;;6216474;23;20020;-88
2022/03/31 12:57:22;;;;;;;3.63;0.80;;;10.00;60.70;;;;;;6216249;23;20091;-88
2022/03/31 13:00:03;;;;;;;2.13;0.70;;;10.00;60.40;;;;;;6216744;23;20028;-89
2022/03/31 13:02:43;;;;;;;2.92;0.70;;;10.00;60.10;;;;;;6215607;23;20024;-89
2022/03/31 13:05:16;;;;;;;4.22;0.90;;;10.10;60.00;;;;;;6189909;23;20370;-89